Terminal Aerodrome Forecast
Issued by NWS

Home | Current Version | Previous Version | Graphics & Text | Print | Product List | Glossary On
Versions: 1 2 3 4 5 6 7 8 9 10 11 12 13 14 15 16 17 18
915
FTUS43 KUNR 201130
TAFGCC
TAF
KGCC 201130Z 2012/2112 28010KT P6SM OVC050
     FM201500 30009KT 5SM -SN OVC010
     FM210000 27007KT P6SM BKN020=

USA.gov is the U.S. government's official web portal to all federal, state and local government web resources and services.